sensor_id;sensor_type;location;lat;lon;timestamp;P1;durP1;ratioP1;P2;durP2;ratioP2
62332;SDS011;48624;49.812;8.562;2022-08-24T06:31:28;7.13;;;4.50;;
62332;SDS011;48624;49.812;8.562;2022-08-24T06:34:18;7.85;;;4.65;;
62332;SDS011;48624;49.812;8.562;2022-08-24T06:37:17;5.50;;;4.68;;
62332;SDS011;48624;49.812;8.562;2022-08-24T06:39:43;6.32;;;4.95;;
62332;SDS011;48624;49.812;8.562;2022-08-24T06:42:08;8.93;;;4.50;;
62332;SDS011;48624;49.812;8.562;2022-08-24T06:44:34;6.28;;;4.55;;
62332;SDS011;48624;49.812;8.562;2022-08-24T06:47:00;9.50;;;4.57;;
62332;SDS011;48624;49.812;8.562;2022-08-24T06:49:25;7.07;;;4.15;;
62332;SDS011;48624;49.812;8.562;2022-08-24T06:51:50;6.20;;;4.93;;
62332;SDS011;48624;49.812;8.562;2022-08-24T06:54:16;7.43;;;3.78;;
62332;SDS011;48624;49.812;8.562;2022-08-24T06:56:44;5.07;;;4.00;;
62332;SDS011;48624;49.812;8.562;2022-08-24T06:59:10;7.32;;;4.15;;
62332;SDS011;48624;49.812;8.562;2022-08-24T07:01:35;8.55;;;4.18;;
62332;SDS011;48624;49.812;8.562;2022-08-24T07:04:00;8.43;;;3.90;;
62332;SDS011;48624;49.812;8.562;2022-08-24T07:06:26;5.90;;;4.63;;
62332;SDS011;48624;49.812;8.562;2022-08-24T07:08:51;5.22;;;4.05;;
62332;SDS011;48624;49.812;8.562;2022-08-24T07:11:18;7.05;;;3.67;;
62332;SDS011;48624;49.812;8.562;2022-08-24T07:13:45;7.65;;;3.78;;
62332;SDS011;48624;49.812;8.562;2022-08-24T07:16:11;5.13;;;3.88;;
62332;SDS011;48624;49.812;8.562;2022-08-24T07:18:40;8.75;;;3.95;;
62332;SDS011;48624;49.812;8.562;2022-08-24T07:21:07;8.95;;;3.80;;
62332;SDS011;48624;49.812;8.562;2022-08-24T07:23:32;9.75;;;4.07;;
62332;SDS011;48624;49.812;8.562;2022-08-24T07:26:09;6.35;;;3.70;;
62332;SDS011;48624;49.812;8.562;2022-08-24T07:28:37;9.60;;;3.60;;
62332;SDS011;48624;49.812;8.562;2022-08-24T07:31:04;7.15;;;3.72;;
62332;SDS011;48624;49.812;8.562;2022-08-24T07:33:30;8.05;;;4.20;;
62332;SDS011;48624;49.812;8.562;2022-08-24T07:35:57;8.57;;;3.72;;
62332;SDS011;48624;49.812;8.562;2022-08-24T07:38:22;6.40;;;3.42;;
62332;SDS011;48624;49.812;8.562;2022-08-24T07:40:48;10.93;;;3.88;;
62332;SDS011;48624;49.812;8.562;2022-08-24T07:43:13;8.60;;;4.10;;
62332;SDS011;48624;49.812;8.562;2022-08-24T07:45:39;7.53;;;3.50;;
62332;SDS011;48624;49.812;8.562;2022-08-24T07:48:06;7.32;;;3.53;;
62332;SDS011;48624;49.812;8.562;2022-08-24T07:50:32;6.85;;;3.30;;
62332;SDS011;48624;49.812;8.562;2022-08-24T07:52:57;6.95;;;3.20;;
62332;SDS011;48624;49.812;8.562;2022-08-24T07:55:23;10.27;;;3.20;;
62332;SDS011;48624;49.812;8.562;2022-08-24T07:57:49;6.20;;;3.38;;
62332;SDS011;48624;49.812;8.562;2022-08-24T08:00:15;5.13;;;3.08;;
62332;SDS011;48624;49.812;8.562;2022-08-24T08:02:43;3.92;;;2.38;;
62332;SDS011;48624;49.812;8.562;2022-08-24T08:05:10;4.97;;;2.78;;
62332;SDS011;48624;49.812;8.562;2022-08-24T08:07:40;3.78;;;2.70;;
62332;SDS011;48624;49.812;8.562;2022-08-24T08:10:05;5.88;;;2.65;;
62332;SDS011;48624;49.812;8.562;2022-08-24T08:12:32;5.45;;;3.10;;
62332;SDS011;48624;49.812;8.562;2022-08-24T08:14:59;6.35;;;3.50;;
62332;SDS011;48624;49.812;8.562;2022-08-24T08:17:24;5.18;;;2.67;;
62332;SDS011;48624;49.812;8.562;2022-08-24T08:19:51;3.33;;;2.78;;
62332;SDS011;48624;49.812;8.562;2022-08-24T08:22:37;7.40;;;2.83;;
62332;SDS011;48624;49.812;8.562;2022-08-24T08:25:21;7.93;;;2.88;;
62332;SDS011;48624;49.812;8.562;2022-08-24T08:27:46;3.53;;;2.50;;
62332;SDS011;48624;49.812;8.562;2022-08-24T08:30:13;3.55;;;2.30;;
62332;SDS011;48624;49.812;8.562;2022-08-24T08:32:40;4.93;;;2.65;;
62332;SDS011;48624;49.812;8.562;2022-08-24T08:35:09;4.40;;;2.67;;
62332;SDS011;48624;49.812;8.562;2022-08-24T08:37:34;7.35;;;2.60;;
62332;SDS011;48624;49.812;8.562;2022-08-24T08:40:00;4.80;;;2.80;;
62332;SDS011;48624;49.812;8.562;2022-08-24T08:42:35;6.47;;;2.83;;
62332;SDS011;48624;49.812;8.562;2022-08-24T08:54:10;6.05;;;2.53;;
62332;SDS011;48624;49.812;8.562;2022-08-24T09:04:44;7.88;;;2.20;;
62332;SDS011;48624;49.812;8.562;2022-08-24T09:07:36;4.90;;;1.83;;
62332;SDS011;48624;49.812;8.562;2022-08-24T09:22:19;5.22;;;2.60;;
62332;SDS011;48624;49.812;8.562;2022-08-24T09:27:38;6.53;;;2.33;;
62332;SDS011;48624;49.812;8.562;2022-08-24T09:30:14;8.15;;;2.95;;
62332;SDS011;48624;49.812;8.562;2022-08-24T09:35:25;8.10;;;2.80;;
62332;SDS011;48624;49.812;8.562;2022-08-24T09:41:36;6.20;;;2.03;;
62332;SDS011;48624;49.812;8.562;2022-08-24T09:47:21;5.50;;;2.55;;
62332;SDS011;48624;49.812;8.562;2022-08-24T09:55:37;4.22;;;1.92;;
62332;SDS011;48624;49.812;8.562;2022-08-24T10:03:53;4.25;;;2.30;;
62332;SDS011;48624;49.812;8.562;2022-08-24T10:09:32;6.72;;;2.08;;
62332;SDS011;48624;49.812;8.562;2022-08-24T10:14:59;3.42;;;1.92;;
62332;SDS011;48624;49.812;8.562;2022-08-24T10:17:41;6.63;;;2.05;;
62332;SDS011;48624;49.812;8.562;2022-08-24T10:20:23;5.25;;;1.92;;
62332;SDS011;48624;49.812;8.562;2022-08-24T10:23:05;2.30;;;1.70;;
62332;SDS011;48624;49.812;8.562;2022-08-24T10:25:52;5.57;;;1.90;;
62332;SDS011;48624;49.812;8.562;2022-08-24T10:31:22;6.03;;;2.33;;
62332;SDS011;48624;49.812;8.562;2022-08-24T10:48:46;2.05;;;1.63;;
62332;SDS011;48624;49.812;8.562;2022-08-24T10:54:04;6.63;;;1.60;;
62332;SDS011;48624;49.812;8.562;2022-08-24T10:56:35;2.95;;;1.30;;
62332;SDS011;48624;49.812;8.562;2022-08-24T10:59:16;5.18;;;1.40;;
62332;SDS011;48624;49.812;8.562;2022-08-24T11:01:59;1.80;;;1.33;;
62332;SDS011;48624;49.812;8.562;2022-08-24T11:04:27;2.40;;;1.10;;
62332;SDS011;48624;49.812;8.562;2022-08-24T11:14:51;5.00;;;1.48;;
62332;SDS011;48624;49.812;8.562;2022-08-24T11:17:19;1.73;;;1.15;;
62332;SDS011;48624;49.812;8.562;2022-08-24T11:19:47;2.33;;;1.73;;
62332;SDS011;48624;49.812;8.562;2022-08-24T11:22:43;3.40;;;1.65;;
62332;SDS011;48624;49.812;8.562;2022-08-24T11:25:31;1.98;;;1.20;;
62332;SDS011;48624;49.812;8.562;2022-08-24T11:30:55;4.90;;;1.50;;
62332;SDS011;48624;49.812;8.562;2022-08-24T11:33:43;4.10;;;1.52;;
62332;SDS011;48624;49.812;8.562;2022-08-24T11:36:18;2.95;;;1.40;;
62332;SDS011;48624;49.812;8.562;2022-08-24T11:38:50;1.98;;;1.17;;
62332;SDS011;48624;49.812;8.562;2022-08-24T11:45:03;1.55;;;1.45;;
62332;SDS011;48624;49.812;8.562;2022-08-24T11:52:59;2.60;;;1.60;;
62332;SDS011;48624;49.812;8.562;2022-08-24T11:55:41;2.50;;;1.65;;
62332;SDS011;48624;49.812;8.562;2022-08-24T11:58:13;2.13;;;1.42;;
62332;SDS011;48624;49.812;8.562;2022-08-24T12:01:04;3.28;;;2.10;;
62332;SDS011;48624;49.812;8.562;2022-08-24T12:12:31;3.80;;;2.15;;
62332;SDS011;48624;49.812;8.562;2022-08-24T12:15:15;3.55;;;1.80;;
62332;SDS011;48624;49.812;8.562;2022-08-24T12:17:59;6.03;;;1.55;;
62332;SDS011;48624;49.812;8.562;2022-08-24T12:20:37;3.40;;;1.52;;
62332;SDS011;48624;49.812;8.562;2022-08-24T12:23:10;3.92;;;1.80;;
62332;SDS011;48624;49.812;8.562;2022-08-24T12:26:00;5.78;;;1.70;;
62332;SDS011;48624;49.812;8.562;2022-08-24T12:28:54;2.33;;;1.95;;
62332;SDS011;48624;49.812;8.562;2022-08-24T12:40:26;3.00;;;1.73;;
62332;SDS011;48624;49.812;8.562;2022-08-24T12:45:12;2.83;;;1.70;;
62332;SDS011;48624;49.812;8.562;2022-08-24T12:53:05;3.15;;;2.13;;
62332;SDS011;48624;49.812;8.562;2022-08-24T13:01:42;5.40;;;2.30;;
62332;SDS011;48624;49.812;8.562;2022-08-24T13:21:01;5.40;;;2.05;;
62332;SDS011;48624;49.812;8.562;2022-08-24T13:23:36;2.58;;;1.80;;
62332;SDS011;48624;49.812;8.562;2022-08-24T13:28:48;2.95;;;1.77;;
62332;SDS011;48624;49.812;8.562;2022-08-24T13:31:20;2.95;;;1.58;;
62332;SDS011;48624;49.812;8.562;2022-08-24T13:45:35;2.80;;;1.73;;
62332;SDS011;48624;49.812;8.562;2022-08-24T13:48:40;4.60;;;1.60;;
62332;SDS011;48624;49.812;8.562;2022-08-24T14:05:26;3.80;;;1.48;;
62332;SDS011;48624;49.812;8.562;2022-08-24T14:38:14;5.97;;;1.75;;
62332;SDS011;48624;49.812;8.562;2022-08-24T14:41:01;2.47;;;1.30;;
62332;SDS011;48624;49.812;8.562;2022-08-24T14:47:19;4.68;;;1.25;;
62332;SDS011;48624;49.812;8.562;2022-08-24T14:50:03;2.75;;;1.45;;
62332;SDS011;48624;49.812;8.562;2022-08-24T15:01:37;3.08;;;1.33;;
62332;SDS011;48624;49.812;8.562;2022-08-24T15:07:59;1.75;;;1.23;;
62332;SDS011;48624;49.812;8.562;2022-08-24T15:10:22;2.25;;;1.50;;
62332;SDS011;48624;49.812;8.562;2022-08-24T15:12:59;2.72;;;1.48;;
62332;SDS011;48624;49.812;8.562;2022-08-24T15:24:46;3.17;;;1.30;;
62332;SDS011;48624;49.812;8.562;2022-08-24T15:27:42;2.63;;;1.50;;
62332;SDS011;48624;49.812;8.562;2022-08-24T15:30:22;3.03;;;1.60;;
62332;SDS011;48624;49.812;8.562;2022-08-24T15:32:51;1.95;;;1.35;;
62332;SDS011;48624;49.812;8.562;2022-08-24T15:35:41;4.90;;;1.80;;
62332;SDS011;48624;49.812;8.562;2022-08-24T15:43:58;2.30;;;1.65;;
62332;SDS011;48624;49.812;8.562;2022-08-24T15:50:30;2.85;;;1.38;;
62332;SDS011;48624;49.812;8.562;2022-08-24T15:53:25;3.53;;;1.50;;
62332;SDS011;48624;49.812;8.562;2022-08-24T15:55:55;2.38;;;1.70;;
62332;SDS011;48624;49.812;8.562;2022-08-24T15:58:44;1.85;;;1.63;;
62332;SDS011;48624;49.812;8.562;2022-08-24T16:10:11;2.50;;;1.40;;
62332;SDS011;48624;49.812;8.562;2022-08-24T16:12:37;3.00;;;1.70;;
62332;SDS011;48624;49.812;8.562;2022-08-24T16:15:11;2.55;;;1.58;;
62332;SDS011;48624;49.812;8.562;2022-08-24T16:18:00;2.15;;;1.25;;
62332;SDS011;48624;49.812;8.562;2022-08-24T16:20:32;2.90;;;1.50;;
62332;SDS011;48624;49.812;8.562;2022-08-24T16:23:11;2.90;;;1.52;;
62332;SDS011;48624;49.812;8.562;2022-08-24T16:29:07;1.38;;;1.00;;
62332;SDS011;48624;49.812;8.562;2022-08-24T16:43:33;2.38;;;1.45;;
62332;SDS011;48624;49.812;8.562;2022-08-24T16:46:07;4.30;;;1.27;;
62332;SDS011;48624;49.812;8.562;2022-08-24T16:51:27;3.90;;;1.50;;
62332;SDS011;48624;49.812;8.562;2022-08-24T16:53:53;3.22;;;1.38;;
62332;SDS011;48624;49.812;8.562;2022-08-24T16:56:18;3.42;;;1.08;;
62332;SDS011;48624;49.812;8.562;2022-08-24T16:58:45;2.53;;;1.30;;
62332;SDS011;48624;49.812;8.562;2022-08-24T17:01:11;4.57;;;1.33;;
62332;SDS011;48624;49.812;8.562;2022-08-24T17:03:38;2.33;;;1.65;;
62332;SDS011;48624;49.812;8.562;2022-08-24T17:06:06;4.90;;;2.08;;
62332;SDS011;48624;49.812;8.562;2022-08-24T17:08:36;2.25;;;1.40;;
62332;SDS011;48624;49.812;8.562;2022-08-24T17:11:02;1.48;;;1.38;;
62332;SDS011;48624;49.812;8.562;2022-08-24T17:13:29;3.03;;;1.17;;
62332;SDS011;48624;49.812;8.562;2022-08-24T17:15:55;3.95;;;1.23;;
62332;SDS011;48624;49.812;8.562;2022-08-24T17:18:27;2.40;;;1.83;;
62332;SDS011;48624;49.812;8.562;2022-08-24T17:21:01;3.45;;;2.05;;
62332;SDS011;48624;49.812;8.562;2022-08-24T17:23:31;4.47;;;1.85;;
62332;SDS011;48624;49.812;8.562;2022-08-24T17:26:01;3.15;;;1.25;;
62332;SDS011;48624;49.812;8.562;2022-08-24T17:28:34;3.67;;;1.90;;
62332;SDS011;48624;49.812;8.562;2022-08-24T17:31:17;4.00;;;1.88;;
62332;SDS011;48624;49.812;8.562;2022-08-24T17:33:42;1.92;;;1.30;;
62332;SDS011;48624;49.812;8.562;2022-08-24T17:36:08;2.30;;;1.65;;
62332;SDS011;48624;49.812;8.562;2022-08-24T17:38:37;3.85;;;1.65;;
62332;SDS011;48624;49.812;8.562;2022-08-24T17:41:17;3.67;;;1.40;;
62332;SDS011;48624;49.812;8.562;2022-08-24T17:43:51;3.17;;;1.67;;
62332;SDS011;48624;49.812;8.562;2022-08-24T17:46:18;2.33;;;1.33;;
62332;SDS011;48624;49.812;8.562;2022-08-24T17:48:47;2.95;;;1.73;;
62332;SDS011;48624;49.812;8.562;2022-08-24T17:51:15;2.35;;;1.70;;
62332;SDS011;48624;49.812;8.562;2022-08-24T17:53:41;2.03;;;1.50;;
62332;SDS011;48624;49.812;8.562;2022-08-24T17:56:11;2.72;;;1.30;;
62332;SDS011;48624;49.812;8.562;2022-08-24T17:58:39;6.70;;;1.95;;
62332;SDS011;48624;49.812;8.562;2022-08-24T18:01:23;5.13;;;2.22;;
62332;SDS011;48624;49.812;8.562;2022-08-24T18:03:49;3.05;;;1.67;;
62332;SDS011;48624;49.812;8.562;2022-08-24T18:06:19;3.33;;;1.80;;
62332;SDS011;48624;49.812;8.562;2022-08-24T18:08:47;5.70;;;2.33;;
62332;SDS011;48624;49.812;8.562;2022-08-24T18:11:17;4.75;;;1.85;;
62332;SDS011;48624;49.812;8.562;2022-08-24T18:13:43;3.50;;;1.70;;
62332;SDS011;48624;49.812;8.562;2022-08-24T18:16:09;5.28;;;1.60;;
62332;SDS011;48624;49.812;8.562;2022-08-24T18:18:46;3.90;;;1.52;;
62332;SDS011;48624;49.812;8.562;2022-08-24T18:21:14;6.55;;;2.22;;
62332;SDS011;48624;49.812;8.562;2022-08-24T18:23:42;2.83;;;1.42;;
62332;SDS011;48624;49.812;8.562;2022-08-24T18:26:11;4.10;;;1.70;;
62332;SDS011;48624;49.812;8.562;2022-08-24T18:28:46;9.90;;;2.22;;
62332;SDS011;48624;49.812;8.562;2022-08-24T18:31:14;3.63;;;1.75;;
62332;SDS011;48624;49.812;8.562;2022-08-24T18:33:40;4.03;;;2.25;;
62332;SDS011;48624;49.812;8.562;2022-08-24T18:36:09;4.07;;;1.92;;
62332;SDS011;48624;49.812;8.562;2022-08-24T18:38:36;4.25;;;1.48;;
62332;SDS011;48624;49.812;8.562;2022-08-24T18:41:01;4.68;;;1.92;;
62332;SDS011;48624;49.812;8.562;2022-08-24T18:43:31;4.30;;;2.25;;
62332;SDS011;48624;49.812;8.562;2022-08-24T18:48:56;3.55;;;1.83;;
62332;SDS011;48624;49.812;8.562;2022-08-24T18:51:26;3.72;;;1.67;;
62332;SDS011;48624;49.812;8.562;2022-08-24T18:53:55;2.28;;;1.80;;
62332;SDS011;48624;49.812;8.562;2022-08-24T18:56:26;2.95;;;1.63;;
62332;SDS011;48624;49.812;8.562;2022-08-24T18:58:51;2.47;;;1.48;;
62332;SDS011;48624;49.812;8.562;2022-08-24T19:01:17;3.28;;;1.45;;
62332;SDS011;48624;49.812;8.562;2022-08-24T19:03:46;2.92;;;1.77;;
62332;SDS011;48624;49.812;8.562;2022-08-24T19:06:18;4.97;;;2.28;;
62332;SDS011;48624;49.812;8.562;2022-08-24T19:08:57;3.55;;;1.83;;
62332;SDS011;48624;49.812;8.562;2022-08-24T19:11:24;5.45;;;1.95;;
62332;SDS011;48624;49.812;8.562;2022-08-24T19:13:51;2.70;;;1.85;;
62332;SDS011;48624;49.812;8.562;2022-08-24T19:16:16;4.10;;;2.05;;
62332;SDS011;48624;49.812;8.562;2022-08-24T19:18:42;4.28;;;1.48;;
62332;SDS011;48624;49.812;8.562;2022-08-24T19:21:10;8.02;;;2.35;;
62332;SDS011;48624;49.812;8.562;2022-08-24T19:29:23;3.00;;;2.70;;
62332;SDS011;48624;49.812;8.562;2022-08-24T19:31:50;2.63;;;2.10;;
62332;SDS011;48624;49.812;8.562;2022-08-24T19:34:33;4.15;;;2.33;;
62332;SDS011;48624;49.812;8.562;2022-08-24T19:37:01;4.13;;;2.72;;
62332;SDS011;48624;49.812;8.562;2022-08-24T19:39:32;4.82;;;2.40;;
62332;SDS011;48624;49.812;8.562;2022-08-24T19:41:57;3.58;;;2.22;;
62332;SDS011;48624;49.812;8.562;2022-08-24T19:44:26;3.80;;;2.47;;
62332;SDS011;48624;49.812;8.562;2022-08-24T19:47:11;4.07;;;2.15;;
62332;SDS011;48624;49.812;8.562;2022-08-24T19:49:36;2.78;;;1.90;;
62332;SDS011;48624;49.812;8.562;2022-08-24T19:52:02;3.78;;;2.30;;
62332;SDS011;48624;49.812;8.562;2022-08-24T19:54:32;4.38;;;2.45;;
62332;SDS011;48624;49.812;8.562;2022-08-24T19:57:00;3.08;;;2.28;;
62332;SDS011;48624;49.812;8.562;2022-08-24T19:59:36;5.85;;;2.40;;
62332;SDS011;48624;49.812;8.562;2022-08-24T20:02:16;3.83;;;2.03;;
62332;SDS011;48624;49.812;8.562;2022-08-24T20:04:44;3.10;;;2.30;;
62332;SDS011;48624;49.812;8.562;2022-08-24T20:07:13;3.45;;;2.20;;
62332;SDS011;48624;49.812;8.562;2022-08-24T20:09:41;3.63;;;2.10;;
62332;SDS011;48624;49.812;8.562;2022-08-24T20:12:06;3.13;;;2.28;;
62332;SDS011;48624;49.812;8.562;2022-08-24T20:14:33;4.43;;;2.40;;
62332;SDS011;48624;49.812;8.562;2022-08-24T20:16:59;5.60;;;2.83;;
62332;SDS011;48624;49.812;8.562;2022-08-24T20:19:28;3.92;;;2.63;;
62332;SDS011;48624;49.812;8.562;2022-08-24T20:22:02;4.35;;;2.33;;
62332;SDS011;48624;49.812;8.562;2022-08-24T20:24:30;5.60;;;2.35;;
62332;SDS011;48624;49.812;8.562;2022-08-24T20:27:03;3.97;;;2.20;;
62332;SDS011;48624;49.812;8.562;2022-08-24T20:29:29;4.95;;;2.58;;
62332;SDS011;48624;49.812;8.562;2022-08-24T20:31:54;5.30;;;2.45;;
62332;SDS011;48624;49.812;8.562;2022-08-24T20:34:25;3.60;;;2.25;;
62332;SDS011;48624;49.812;8.562;2022-08-24T20:36:50;5.65;;;2.55;;
62332;SDS011;48624;49.812;8.562;2022-08-24T20:39:16;4.25;;;2.40;;
62332;SDS011;48624;49.812;8.562;2022-08-24T20:41:46;6.78;;;4.20;;
62332;SDS011;48624;49.812;8.562;2022-08-24T20:44:11;4.13;;;2.95;;
62332;SDS011;48624;49.812;8.562;2022-08-24T20:46:37;5.80;;;2.63;;
62332;SDS011;48624;49.812;8.562;2022-08-24T20:49:07;4.32;;;2.35;;
62332;SDS011;48624;49.812;8.562;2022-08-24T20:51:37;5.80;;;2.67;;
62332;SDS011;48624;49.812;8.562;2022-08-24T20:54:02;4.30;;;2.20;;
62332;SDS011;48624;49.812;8.562;2022-08-24T20:56:30;3.90;;;2.22;;
62332;SDS011;48624;49.812;8.562;2022-08-24T20:59:08;4.32;;;1.92;;
62332;SDS011;48624;49.812;8.562;2022-08-24T21:01:36;3.05;;;1.50;;
62332;SDS011;48624;49.812;8.562;2022-08-24T21:04:02;4.03;;;2.20;;
62332;SDS011;48624;49.812;8.562;2022-08-24T21:06:28;2.40;;;1.85;;
62332;SDS011;48624;49.812;8.562;2022-08-24T21:08:54;3.55;;;2.60;;
62332;SDS011;48624;49.812;8.562;2022-08-24T21:11:19;4.50;;;2.38;;
62332;SDS011;48624;49.812;8.562;2022-08-24T21:13:45;4.13;;;2.03;;
62332;SDS011;48624;49.812;8.562;2022-08-24T21:16:11;2.50;;;1.83;;
62332;SDS011;48624;49.812;8.562;2022-08-24T21:18:37;1.85;;;1.63;;
62332;SDS011;48624;49.812;8.562;2022-08-24T21:21:03;3.60;;;2.03;;
62332;SDS011;48624;49.812;8.562;2022-08-24T21:23:30;3.13;;;2.20;;
62332;SDS011;48624;49.812;8.562;2022-08-24T21:25:59;5.03;;;1.90;;
62332;SDS011;48624;49.812;8.562;2022-08-24T21:28:26;2.30;;;1.80;;
62332;SDS011;48624;49.812;8.562;2022-08-24T21:30:52;2.00;;;1.77;;
62332;SDS011;48624;49.812;8.562;2022-08-24T21:33:17;3.97;;;2.03;;
62332;SDS011;48624;49.812;8.562;2022-08-24T21:36:01;2.35;;;1.83;;
62332;SDS011;48624;49.812;8.562;2022-08-24T21:38:27;2.45;;;1.63;;
62332;SDS011;48624;49.812;8.562;2022-08-24T21:40:53;2.10;;;1.90;;
62332;SDS011;48624;49.812;8.562;2022-08-24T21:43:19;2.00;;;1.70;;
62332;SDS011;48624;49.812;8.562;2022-08-24T21:45:46;3.17;;;1.83;;
62332;SDS011;48624;49.812;8.562;2022-08-24T21:48:15;2.78;;;1.58;;
62332;SDS011;48624;49.812;8.562;2022-08-24T21:50:41;2.15;;;1.63;;
62332;SDS011;48624;49.812;8.562;2022-08-24T21:53:07;2.97;;;1.77;;
62332;SDS011;48624;49.812;8.562;2022-08-24T21:55:32;3.05;;;1.77;;
62332;SDS011;48624;49.812;8.562;2022-08-24T21:57:58;1.98;;;1.75;;
62332;SDS011;48624;49.812;8.562;2022-08-24T22:00:24;4.53;;;1.75;;
62332;SDS011;48624;49.812;8.562;2022-08-24T22:02:50;1.60;;;1.45;;
62332;SDS011;48624;49.812;8.562;2022-08-24T22:05:15;2.70;;;1.88;;
62332;SDS011;48624;49.812;8.562;2022-08-24T22:07:42;2.97;;;2.42;;
62332;SDS011;48624;49.812;8.562;2022-08-24T22:10:08;3.80;;;1.75;;
62332;SDS011;48624;49.812;8.562;2022-08-24T22:12:35;3.33;;;2.40;;
62332;SDS011;48624;49.812;8.562;2022-08-24T22:15:03;2.00;;;1.80;;
62332;SDS011;48624;49.812;8.562;2022-08-24T22:17:32;4.70;;;2.20;;
62332;SDS011;48624;49.812;8.562;2022-08-24T22:19:57;4.78;;;2.05;;
62332;SDS011;48624;49.812;8.562;2022-08-24T22:22:23;3.58;;;2.33;;
62332;SDS011;48624;49.812;8.562;2022-08-24T22:24:49;2.67;;;2.15;;
62332;SDS011;48624;49.812;8.562;2022-08-24T22:27:14;5.40;;;2.10;;
62332;SDS011;48624;49.812;8.562;2022-08-24T22:29:40;2.50;;;2.30;;
62332;SDS011;48624;49.812;8.562;2022-08-24T22:32:05;2.75;;;2.20;;
62332;SDS011;48624;49.812;8.562;2022-08-24T22:34:31;4.70;;;2.30;;
62332;SDS011;48624;49.812;8.562;2022-08-24T22:36:56;3.90;;;2.55;;
62332;SDS011;48624;49.812;8.562;2022-08-24T22:39:24;3.17;;;2.00;;
62332;SDS011;48624;49.812;8.562;2022-08-24T22:41:49;3.38;;;2.58;;
62332;SDS011;48624;49.812;8.562;2022-08-24T22:44:16;3.25;;;2.22;;
62332;SDS011;48624;49.812;8.562;2022-08-24T22:46:56;4.72;;;2.08;;
62332;SDS011;48624;49.812;8.562;2022-08-24T22:49:25;3.40;;;2.22;;
62332;SDS011;48624;49.812;8.562;2022-08-24T22:51:53;5.53;;;2.67;;
62332;SDS011;48624;49.812;8.562;2022-08-24T22:54:19;6.90;;;2.92;;
62332;SDS011;48624;49.812;8.562;2022-08-24T22:56:46;3.85;;;2.25;;
62332;SDS011;48624;49.812;8.562;2022-08-24T22:59:18;4.65;;;2.60;;
62332;SDS011;48624;49.812;8.562;2022-08-24T23:01:51;5.85;;;2.30;;
62332;SDS011;48624;49.812;8.562;2022-08-24T23:04:19;4.20;;;2.50;;
62332;SDS011;48624;49.812;8.562;2022-08-24T23:06:47;4.45;;;2.80;;
62332;SDS011;48624;49.812;8.562;2022-08-24T23:09:14;6.53;;;2.67;;
62332;SDS011;48624;49.812;8.562;2022-08-24T23:11:39;3.80;;;2.20;;
62332;SDS011;48624;49.812;8.562;2022-08-24T23:14:06;3.58;;;2.13;;
62332;SDS011;48624;49.812;8.562;2022-08-24T23:16:34;2.97;;;2.10;;
62332;SDS011;48624;49.812;8.562;2022-08-24T23:19:01;4.45;;;2.72;;
62332;SDS011;48624;49.812;8.562;2022-08-24T23:21:46;6.18;;;2.70;;
62332;SDS011;48624;49.812;8.562;2022-08-24T23:24:12;5.25;;;2.45;;
62332;SDS011;48624;49.812;8.562;2022-08-24T23:26:38;3.53;;;2.50;;
62332;SDS011;48624;49.812;8.562;2022-08-24T23:29:05;3.47;;;2.90;;
62332;SDS011;48624;49.812;8.562;2022-08-24T23:31:32;6.35;;;4.55;;
62332;SDS011;48624;49.812;8.562;2022-08-24T23:33:57;6.65;;;2.92;;
62332;SDS011;48624;49.812;8.562;2022-08-24T23:36:24;2.63;;;2.38;;
62332;SDS011;48624;49.812;8.562;2022-08-24T23:38:51;5.38;;;2.63;;
62332;SDS011;48624;49.812;8.562;2022-08-24T23:41:19;4.97;;;2.63;;
62332;SDS011;48624;49.812;8.562;2022-08-24T23:43:47;2.67;;;2.47;;
62332;SDS011;48624;49.812;8.562;2022-08-24T23:46:13;7.38;;;2.70;;
62332;SDS011;48624;49.812;8.562;2022-08-24T23:48:39;5.32;;;2.72;;
62332;SDS011;48624;49.812;8.562;2022-08-24T23:51:06;4.05;;;2.85;;
62332;SDS011;48624;49.812;8.562;2022-08-24T23:53:33;4.75;;;2.50;;
62332;SDS011;48624;49.812;8.562;2022-08-24T23:56:09;3.80;;;2.50;;
62332;SDS011;48624;49.812;8.562;2022-08-24T23:58:46;10.07;;;3.03;;
